Terminal Aerodrome Forecast
Issued by NWS

Home | Current Version | Previous Version | Text Only | Print | Product List | Glossary On
Versions: 1 2 3 4 5 6 7 8 9 10 11 12 13 14 15 16 17 18
000
FTUS45 KABQ 221140
TAFTCC
TAF
KTCC 221140Z 2212/2312 17006KT P6SM BKN060
     FM221600 22011G20KT P6SM SCT070
     FM221900 22021G30KT P6SM FEW080
     FM230100 23012KT P6SM SKC=

USA.gov is the U.S. government's official web portal to all federal, state and local government web resources and services.